createdAt,value
2017-07-22T00:00:29.811Z,86.70
2017-07-22T00:02:58.146Z,87.26
2017-07-22T00:05:26.489Z,87.29
2017-07-22T00:07:54.866Z,87.16
2017-07-22T00:10:23.183Z,86.24
2017-07-22T00:12:51.542Z,87.54
2017-07-22T00:15:19.860Z,88.08
2017-07-22T00:17:48.221Z,88.32
2017-07-22T00:20:16.568Z,87.94
2017-07-22T00:22:45.604Z,87.22
2017-07-22T00:25:13.953Z,87.06
2017-07-22T00:27:42.310Z,88.03
2017-07-22T00:30:10.656Z,88.05
2017-07-22T00:32:39.009Z,88.72
2017-07-22T00:35:07.344Z,88.12
2017-07-22T00:37:35.705Z,88.53
2017-07-22T00:40:04.063Z,88.42
2017-07-22T00:42:32.389Z,88.84
2017-07-22T00:45:00.735Z,88.75
2017-07-22T00:47:29.060Z,88.41
2017-07-22T00:49:57.705Z,88.96
2017-07-22T00:52:26.055Z,88.80
2017-07-22T00:54:54.385Z,88.41
2017-07-22T00:57:22.714Z,88.59
2017-07-22T00:59:51.051Z,89.37
2017-07-22T01:02:19.406Z,88.86
2017-07-22T01:04:47.739Z,88.76
2017-07-22T01:07:16.090Z,88.82
2017-07-22T01:09:45.163Z,88.77
2017-07-22T01:12:13.556Z,89.06
2017-07-22T01:14:41.915Z,89.37
2017-07-22T01:17:11.013Z,89.72
2017-07-22T01:19:39.360Z,88.75
2017-07-22T01:22:07.712Z,88.82
2017-07-22T01:24:36.063Z,88.64
2017-07-22T01:27:04.383Z,88.61
2017-07-22T01:29:32.738Z,88.40
2017-07-22T01:32:01.074Z,88.68
2017-07-22T01:34:29.414Z,88.99
2017-07-22T01:36:57.766Z,89.22
2017-07-22T01:39:26.111Z,88.74
2017-07-22T01:41:55.242Z,88.65
2017-07-22T01:44:23.598Z,89.00
2017-07-22T01:46:51.951Z,88.72
2017-07-22T01:49:20.301Z,88.24
2017-07-22T01:51:49.277Z,88.29
2017-07-22T01:54:17.641Z,89.23
2017-07-22T01:56:45.981Z,88.68
2017-07-22T01:59:14.575Z,88.20
2017-07-22T02:01:42.949Z,87.89
2017-07-22T02:04:11.267Z,88.37
2017-07-22T02:06:39.609Z,88.91
2017-07-22T02:09:09.101Z,88.85
2017-07-22T02:11:37.726Z,88.54
2017-07-22T02:14:06.063Z,88.46
2017-07-22T02:16:34.405Z,89.14
2017-07-22T02:19:02.764Z,89.69
2017-07-22T02:21:31.094Z,89.36
2017-07-22T02:23:59.429Z,88.68
2017-07-22T02:26:27.771Z,87.66
2017-07-22T02:28:56.110Z,88.42
2017-07-22T02:31:24.478Z,88.76
2017-07-22T02:33:52.900Z,88.63
2017-07-22T02:36:21.300Z,88.89
2017-07-22T02:38:50.029Z,89.13
2017-07-22T02:41:18.347Z,88.25
2017-07-22T02:43:47.057Z,87.64
2017-07-22T02:46:15.379Z,88.46
2017-07-22T02:48:43.714Z,88.29
2017-07-22T02:51:12.060Z,88.07
2017-07-22T02:53:40.396Z,88.67
2017-07-22T02:56:08.748Z,89.04
2017-07-22T02:58:37.083Z,88.21
2017-07-22T03:01:05.427Z,87.95
2017-07-22T03:03:33.784Z,88.31
2017-07-22T03:06:02.123Z,88.66
2017-07-22T03:08:30.480Z,88.40
2017-07-22T03:10:58.821Z,87.96
2017-07-22T03:13:27.159Z,89.07
2017-07-22T03:15:55.507Z,89.38
2017-07-22T03:18:23.844Z,89.40
2017-07-22T03:20:52.477Z,89.12
2017-07-22T03:23:20.825Z,89.53
2017-07-22T03:25:49.157Z,89.33
2017-07-22T03:28:17.576Z,89.40
2017-07-22T03:30:45.922Z,89.54
2017-07-22T03:33:14.274Z,89.39
2017-07-22T03:35:42.618Z,89.52
2017-07-22T03:38:10.972Z,90.13
2017-07-22T03:40:39.326Z,89.98
2017-07-22T03:43:07.673Z,90.07
2017-07-22T03:45:36.023Z,90.18
2017-07-22T03:48:04.379Z,90.03
2017-07-22T03:50:32.721Z,89.67
2017-07-22T03:53:01.074Z,89.61
2017-07-22T03:55:29.415Z,89.63
2017-07-22T03:57:57.826Z,89.57
2017-07-22T04:00:26.143Z,89.62
2017-07-22T04:02:54.485Z,89.17
2017-07-22T04:05:22.823Z,89.75
2017-07-22T04:07:51.151Z,89.38
2017-07-22T04:10:19.772Z,89.29
2017-07-22T04:12:48.474Z,89.41
2017-07-22T04:15:16.821Z,89.50
2017-07-22T04:17:45.167Z,89.60
2017-07-22T04:20:13.501Z,89.86
2017-07-22T04:22:42.092Z,89.96
2017-07-22T04:25:10.426Z,89.60
2017-07-22T04:27:38.747Z,89.67
2017-07-22T04:30:07.106Z,89.77
2017-07-22T04:32:35.431Z,90.03
2017-07-22T04:35:04.046Z,90.10
2017-07-22T04:37:32.369Z,90.45
2017-07-22T04:40:00.714Z,90.80
2017-07-22T04:42:29.082Z,90.14
2017-07-22T04:44:57.413Z,89.51
2017-07-22T04:47:26.021Z,88.94
2017-07-22T04:49:54.349Z,88.50
2017-07-22T04:52:22.682Z,89.12
2017-07-22T04:54:51.042Z,89.60
2017-07-22T04:57:19.392Z,90.11
2017-07-22T04:59:47.734Z,89.91
2017-07-22T05:02:16.843Z,90.00
2017-07-22T05:04:45.215Z,89.00
2017-07-22T05:07:13.571Z,88.94
2017-07-22T05:09:41.911Z,89.45
2017-07-22T05:12:10.270Z,88.99
2017-07-22T05:14:38.610Z,88.42
2017-07-22T05:17:07.084Z,89.06
2017-07-22T05:19:35.472Z,89.96
2017-07-22T05:22:03.829Z,90.44
2017-07-22T05:24:32.199Z,90.71
2017-07-22T05:27:00.533Z,90.50
2017-07-22T05:29:29.666Z,90.15
2017-07-22T05:31:58.026Z,90.11
2017-07-22T05:34:27.079Z,89.82
2017-07-22T05:36:55.436Z,89.63
2017-07-22T05:39:23.782Z,90.01
2017-07-22T05:41:52.119Z,90.05
2017-07-22T05:44:20.479Z,89.77
2017-07-22T05:46:48.878Z,89.93
2017-07-22T05:49:17.253Z,89.25
2017-07-22T05:51:45.578Z,89.24
2017-07-22T05:54:13.939Z,89.35
2017-07-22T05:56:43.046Z,89.67
2017-07-22T05:59:11.385Z,88.72
2017-07-22T06:01:39.748Z,89.17
2017-07-22T06:04:08.103Z,88.59
2017-07-22T06:06:36.456Z,88.93
2017-07-22T06:09:05.576Z,88.56
2017-07-22T06:11:33.903Z,89.15
2017-07-22T06:14:02.255Z,88.94
2017-07-22T06:16:31.030Z,88.46
2017-07-22T06:18:59.372Z,87.57
2017-07-22T06:21:27.700Z,88.90
2017-07-22T06:23:56.050Z,88.13
2017-07-22T06:26:25.143Z,86.60
2017-07-22T06:28:53.789Z,86.07
2017-07-22T06:31:22.125Z,86.42
2017-07-22T06:33:50.473Z,87.62
2017-07-22T06:36:18.840Z,86.81
2017-07-22T06:38:47.167Z,87.31
2017-07-22T06:41:15.522Z,86.30
2017-07-22T06:43:43.861Z,86.83
2017-07-22T06:46:12.222Z,86.56
2017-07-22T06:48:52.658Z,87.05
2017-07-22T06:51:21.497Z,87.61
2017-07-22T06:53:49.860Z,87.69
2017-07-22T06:56:18.207Z,87.50
2017-07-22T06:58:46.554Z,87.24
2017-07-22T07:01:14.929Z,86.99
2017-07-22T07:03:43.285Z,85.99
2017-07-22T07:06:11.622Z,85.65
2017-07-22T07:08:39.997Z,86.93
2017-07-22T07:11:08.362Z,86.05
2017-07-22T07:13:36.723Z,87.31
2017-07-22T07:16:05.061Z,86.28
2017-07-22T07:18:33.378Z,87.95
2017-07-22T07:21:02.103Z,88.58
2017-07-22T07:23:30.459Z,87.53
2017-07-22T07:25:58.815Z,87.44
2017-07-22T07:28:27.174Z,86.00
2017-07-22T07:30:55.533Z,87.80
2017-07-22T07:33:23.894Z,86.35
2017-07-22T07:35:52.990Z,85.82
2017-07-22T07:38:21.341Z,85.92
2017-07-22T07:40:49.706Z,85.96
2017-07-22T07:43:18.032Z,86.96
2017-07-22T07:45:47.428Z,86.47
2017-07-22T07:48:15.773Z,85.55
2017-07-22T07:50:44.099Z,84.36
2017-07-22T07:53:12.465Z,85.18
2017-07-22T07:55:41.583Z,83.49
2017-07-22T07:58:10.203Z,84.61
2017-07-22T08:00:38.535Z,83.70
2017-07-22T08:03:07.647Z,84.08
2017-07-22T08:05:36.000Z,83.78
2017-07-22T08:08:04.363Z,81.23
2017-07-22T08:10:33.083Z,83.49
2017-07-22T08:13:01.423Z,82.87
2017-07-22T08:15:29.806Z,84.20
2017-07-22T08:17:58.176Z,84.81
2017-07-22T08:20:26.542Z,83.45
2017-07-22T08:22:54.930Z,81.07
2017-07-22T08:25:23.938Z,81.72
2017-07-22T08:27:53.027Z,80.06
2017-07-22T08:30:21.399Z,78.78
2017-07-22T08:32:49.741Z,78.41
2017-07-22T08:35:18.438Z,81.71
2017-07-22T08:37:46.769Z,79.86
2017-07-22T08:40:15.100Z,76.87
2017-07-22T08:42:43.479Z,79.15
2017-07-22T08:45:11.808Z,75.66
2017-07-22T08:47:40.557Z,74.30
2017-07-22T08:50:08.897Z,77.67
2017-07-22T08:52:38.473Z,77.42
2017-07-22T08:57:46.354Z,73.77
2017-07-22T09:00:15.121Z,75.88
2017-07-22T09:02:43.463Z,75.08
2017-07-22T09:05:11.834Z,73.92
2017-07-22T09:07:40.222Z,70.57
2017-07-22T09:10:08.556Z,74.19
2017-07-22T09:12:36.894Z,75.51
2017-07-22T09:15:05.261Z,74.29
2017-07-22T09:17:33.587Z,76.21
2017-07-22T09:20:02.486Z,73.62
2017-07-22T09:22:31.994Z,71.27
2017-07-22T09:25:00.345Z,72.53
2017-07-22T09:27:29.490Z,71.11
2017-07-22T09:29:57.846Z,71.61
2017-07-22T09:32:26.223Z,72.26
2017-07-22T09:34:54.546Z,70.52
2017-07-22T09:37:22.910Z,70.28
2017-07-22T09:39:51.295Z,71.31
2017-07-22T09:42:19.645Z,72.16
2017-07-22T09:44:48.038Z,68.35
2017-07-22T09:47:16.364Z,69.62
2017-07-22T09:49:44.717Z,69.23
2017-07-22T09:52:13.078Z,70.75
2017-07-22T09:54:42.003Z,66.54
2017-07-22T09:57:10.380Z,67.35
2017-07-22T09:59:38.703Z,66.36
2017-07-22T10:02:07.052Z,70.12
2017-07-22T10:04:35.401Z,66.57
2017-07-22T10:07:03.762Z,66.34
2017-07-22T10:09:32.099Z,67.58
2017-07-22T10:12:00.439Z,65.83
2017-07-22T10:14:28.796Z,66.21
2017-07-22T10:16:57.699Z,64.32
2017-07-22T10:19:26.030Z,64.93
2017-07-22T10:21:54.364Z,64.90
2017-07-22T10:24:22.710Z,65.71
2017-07-22T10:26:51.841Z,64.89
2017-07-22T10:29:20.186Z,64.16
2017-07-22T10:31:48.523Z,64.69
2017-07-22T10:34:16.877Z,63.07
2017-07-22T10:36:45.204Z,63.27
2017-07-22T10:39:13.563Z,63.58
2017-07-22T10:41:41.919Z,64.53
2017-07-22T10:44:10.231Z,65.38
2017-07-22T10:46:38.598Z,65.90
2017-07-22T10:49:06.927Z,62.49
2017-07-22T10:51:35.614Z,63.31
2017-07-22T10:54:03.945Z,65.86
2017-07-22T10:56:32.300Z,64.84
2017-07-22T10:59:00.653Z,71.77
2017-07-22T11:01:28.989Z,69.75
2017-07-22T11:03:57.344Z,74.54
2017-07-22T11:06:25.671Z,74.74
2017-07-22T11:08:54.031Z,73.69
2017-07-22T11:11:22.379Z,74.50
2017-07-22T11:13:51.963Z,77.29
2017-07-22T11:16:20.304Z,76.41
2017-07-22T11:18:48.646Z,76.46
2017-07-22T11:21:17.012Z,78.33
2017-07-22T11:23:45.361Z,82.26
2017-07-22T11:26:14.477Z,84.56
2017-07-22T11:28:42.817Z,84.18
2017-07-22T11:31:11.179Z,85.28
2017-07-22T11:33:39.546Z,85.90
2017-07-22T11:36:07.891Z,86.58
2017-07-22T11:38:36.239Z,84.36
2017-07-22T11:41:04.572Z,82.54
2017-07-22T11:43:32.920Z,83.85
2017-07-22T11:46:02.144Z,83.95
2017-07-22T11:48:30.490Z,82.92
2017-07-22T11:50:58.859Z,85.38
2017-07-22T11:53:27.212Z,81.31
2017-07-22T11:55:55.548Z,80.94
2017-07-22T11:58:23.888Z,80.79
2017-07-22T12:00:53.215Z,80.16
2017-07-22T12:03:22.347Z,83.13
2017-07-22T12:05:50.728Z,83.10
2017-07-22T12:08:19.700Z,82.53
2017-07-22T12:10:48.052Z,78.44
2017-07-22T12:13:16.392Z,82.81
2017-07-22T12:15:45.135Z,78.61
2017-07-22T12:18:13.485Z,79.72
2017-07-22T12:20:41.865Z,77.77
2017-07-22T12:23:10.217Z,78.73
2017-07-22T12:25:38.554Z,75.79
2017-07-22T12:28:07.707Z,77.45
2017-07-22T12:30:36.080Z,75.83
2017-07-22T12:33:04.446Z,75.45
2017-07-22T12:35:32.786Z,78.56
2017-07-22T12:38:01.134Z,73.00
2017-07-22T12:40:29.497Z,70.68
2017-07-22T12:42:57.857Z,72.67
2017-07-22T12:45:26.228Z,73.03
2017-07-22T12:47:54.560Z,70.95
2017-07-22T12:50:22.910Z,73.11
2017-07-22T12:52:51.244Z,69.56
2017-07-22T12:55:19.594Z,70.62
2017-07-22T12:57:48.827Z,72.67
2017-07-22T13:00:17.171Z,71.00
2017-07-22T13:02:45.501Z,71.01
2017-07-22T13:05:13.871Z,69.53
2017-07-22T13:07:42.664Z,69.51
2017-07-22T13:10:11.045Z,65.24
2017-07-22T13:12:39.388Z,65.90
2017-07-22T13:15:07.736Z,62.87
2017-07-22T13:17:36.109Z,64.34
2017-07-22T13:20:04.428Z,64.46
2017-07-22T13:22:32.772Z,64.20
2017-07-22T13:25:01.158Z,61.45
2017-07-22T13:27:29.489Z,59.48
2017-07-22T13:29:58.579Z,63.60
2017-07-22T13:32:27.667Z,61.57
2017-07-22T13:34:56.032Z,57.50
2017-07-22T13:37:24.423Z,58.17
2017-07-22T13:39:52.763Z,64.74
2017-07-22T13:42:21.099Z,57.46
2017-07-22T13:44:50.197Z,59.20
2017-07-22T13:47:19.014Z,63.48
2017-07-22T13:49:47.360Z,60.89
2017-07-22T13:52:15.718Z,58.70
2017-07-22T13:54:44.073Z,59.43
2017-07-22T13:57:13.262Z,57.19
2017-07-22T13:59:41.607Z,54.42
2017-07-22T14:02:10.700Z,53.71
2017-07-22T14:04:39.034Z,53.56
2017-07-22T14:07:07.409Z,55.72
2017-07-22T14:09:35.855Z,53.47
2017-07-22T14:12:04.227Z,53.55
2017-07-22T14:14:32.607Z,51.43
2017-07-22T14:17:00.962Z,50.22
2017-07-22T14:19:29.296Z,52.31
2017-07-22T14:21:57.616Z,53.69
2017-07-22T14:24:25.982Z,55.67
2017-07-22T14:26:54.332Z,52.94
2017-07-22T14:29:22.680Z,55.96
2017-07-22T14:31:51.117Z,55.58
2017-07-22T14:34:19.464Z,53.11
2017-07-22T14:36:48.087Z,51.94
2017-07-22T14:39:16.443Z,50.52
2017-07-22T14:41:44.803Z,50.23
2017-07-22T14:44:13.162Z,50.13
2017-07-22T14:46:41.509Z,49.49
2017-07-22T14:49:10.298Z,50.64
2017-07-22T14:51:38.747Z,49.65
2017-07-22T14:54:07.187Z,48.33
2017-07-22T14:56:35.685Z,48.49
2017-07-22T14:59:04.129Z,46.71
2017-07-22T15:01:32.668Z,47.70
2017-07-22T15:04:01.199Z,45.85
2017-07-22T15:06:29.550Z,47.68
2017-07-22T15:08:57.901Z,47.47
2017-07-22T15:11:26.255Z,49.30
2017-07-22T15:13:54.879Z,46.00
2017-07-22T15:16:23.227Z,46.02
2017-07-22T15:18:51.667Z,45.82
2017-07-22T15:21:20.026Z,44.57
2017-07-22T15:23:48.344Z,44.38
2017-07-22T15:26:16.956Z,44.96
2017-07-22T15:28:45.290Z,44.34
2017-07-22T15:31:13.615Z,42.87
2017-07-22T15:33:41.955Z,43.31
2017-07-22T15:36:10.306Z,41.98
2017-07-22T15:38:38.962Z,42.73
2017-07-22T15:41:07.305Z,44.45
2017-07-22T15:43:35.652Z,41.92
2017-07-22T15:46:04.026Z,44.19
2017-07-22T15:48:32.357Z,39.49
2017-07-22T15:51:00.963Z,39.80
2017-07-22T15:53:29.308Z,40.39
2017-07-22T15:55:57.636Z,40.42
2017-07-22T15:58:26.007Z,41.31
2017-07-22T16:00:54.338Z,41.94
2017-07-22T16:03:22.694Z,40.82
2017-07-22T16:05:51.037Z,39.97
2017-07-22T16:08:19.456Z,40.62
2017-07-22T16:10:47.826Z,42.63
2017-07-22T16:13:16.170Z,43.88
2017-07-22T16:15:44.533Z,44.34
2017-07-22T16:18:12.884Z,42.38
2017-07-22T16:20:41.257Z,42.96
2017-07-22T16:23:09.623Z,44.95
2017-07-22T16:25:37.975Z,46.26
2017-07-22T16:28:06.357Z,48.12
2017-07-22T16:30:34.702Z,47.64
2017-07-22T16:33:03.069Z,48.67
2017-07-22T16:35:31.443Z,51.26
2017-07-22T16:37:59.777Z,47.56
2017-07-22T16:40:28.874Z,48.46
2017-07-22T16:42:57.200Z,46.41
2017-07-22T16:45:25.840Z,46.14
2017-07-22T16:47:54.182Z,44.03
2017-07-22T16:50:22.530Z,44.01
2017-07-22T16:52:50.891Z,44.83
2017-07-22T16:55:19.241Z,45.16
2017-07-22T16:57:47.598Z,44.56
2017-07-22T17:00:15.943Z,42.60
2017-07-22T17:02:44.290Z,44.49
2017-07-22T17:05:12.644Z,47.44
2017-07-22T17:07:41.634Z,47.61
2017-07-22T17:10:09.976Z,50.23
2017-07-22T17:12:38.349Z,51.17
2017-07-22T17:15:06.688Z,52.60
2017-07-22T17:17:35.042Z,50.31
2017-07-22T17:20:03.398Z,48.81
2017-07-22T17:22:31.729Z,49.03
2017-07-22T17:25:00.070Z,47.07
2017-07-22T17:27:28.427Z,47.24
2017-07-22T17:29:56.764Z,48.20
2017-07-22T17:32:25.141Z,49.49
2017-07-22T17:34:53.480Z,48.31
2017-07-22T17:37:21.899Z,51.18
2017-07-22T17:39:50.607Z,52.09
2017-07-22T17:42:18.928Z,54.98
2017-07-22T17:44:47.282Z,54.69
2017-07-22T17:47:15.655Z,54.77
2017-07-22T17:49:44.007Z,55.64
2017-07-22T17:52:13.430Z,57.60
2017-07-22T17:54:41.744Z,57.38
2017-07-22T17:57:10.085Z,56.86
2017-07-22T17:59:39.582Z,58.12
2017-07-22T18:02:07.928Z,58.30
2017-07-22T18:04:36.278Z,58.74
2017-07-22T18:07:04.623Z,60.12
2017-07-22T18:09:32.965Z,61.25
2017-07-22T18:12:01.337Z,61.92
2017-07-22T18:14:29.751Z,62.87
2017-07-22T18:16:58.188Z,63.76
2017-07-22T18:19:26.579Z,63.68
2017-07-22T18:21:54.982Z,64.54
2017-07-22T18:24:23.423Z,64.41
2017-07-22T18:26:52.230Z,64.75
2017-07-22T18:29:20.580Z,65.01
2017-07-22T18:31:48.953Z,65.05
2017-07-22T18:34:17.281Z,65.16
2017-07-22T18:36:45.646Z,65.19
2017-07-22T18:39:14.008Z,65.99
2017-07-22T18:41:42.355Z,66.30
2017-07-22T18:44:10.712Z,66.54
2017-07-22T18:46:39.072Z,66.38
2017-07-22T18:49:07.453Z,66.49
2017-07-22T18:51:35.811Z,66.75
2017-07-22T18:54:04.163Z,66.88
2017-07-22T18:56:32.560Z,67.16
2017-07-22T18:59:00.914Z,66.95
2017-07-22T19:01:30.092Z,66.58
2017-07-22T19:03:58.446Z,66.77
2017-07-22T19:06:26.808Z,66.86
2017-07-22T19:08:55.293Z,67.16
2017-07-22T19:11:23.643Z,66.11
2017-07-22T19:13:52.774Z,67.16
2017-07-22T19:16:21.405Z,68.29
2017-07-22T19:18:49.723Z,68.99
2017-07-22T19:21:18.486Z,69.40
2017-07-22T19:23:46.827Z,69.27
2017-07-22T19:26:15.190Z,70.07
2017-07-22T19:28:43.586Z,69.64
2017-07-22T19:31:11.951Z,69.22
2017-07-22T19:33:40.332Z,69.99
2017-07-22T19:36:08.694Z,68.67
2017-07-22T19:38:37.125Z,68.73
2017-07-22T19:41:05.503Z,68.78
2017-07-22T19:43:33.854Z,69.70
2017-07-22T19:46:02.234Z,69.92
2017-07-22T19:48:30.584Z,70.16
2017-07-22T19:50:58.936Z,70.14
2017-07-22T19:53:27.271Z,70.76
2017-07-22T19:55:55.599Z,71.13
2017-07-22T19:58:24.225Z,70.65
2017-07-22T20:00:52.687Z,70.83
2017-07-22T20:03:21.105Z,70.82
2017-07-22T20:05:49.447Z,71.19
2017-07-22T20:08:17.798Z,71.72
2017-07-22T20:10:46.410Z,71.12
2017-07-22T20:13:15.243Z,71.56
2017-07-22T20:15:43.610Z,72.12
2017-07-22T20:18:11.948Z,72.38
2017-07-22T20:20:40.301Z,72.33
2017-07-22T20:23:08.899Z,72.97
2017-07-22T20:25:37.227Z,73.04
2017-07-22T20:28:05.564Z,72.98
2017-07-22T20:30:33.948Z,73.36
2017-07-22T20:33:02.294Z,72.78
2017-07-22T20:35:30.911Z,72.78
2017-07-22T20:37:59.240Z,73.18
2017-07-22T20:40:27.601Z,74.49
2017-07-22T20:42:55.956Z,75.97
2017-07-22T20:45:24.283Z,75.83
2017-07-22T20:47:52.646Z,76.18
2017-07-22T20:50:21.014Z,77.16
2017-07-22T20:52:49.379Z,78.49
2017-07-22T20:55:17.730Z,77.52
2017-07-22T20:57:46.054Z,77.46
2017-07-22T21:00:14.406Z,79.10
2017-07-22T21:02:42.791Z,79.20
2017-07-22T21:05:11.209Z,79.17
2017-07-22T21:07:39.798Z,77.89
2017-07-22T21:10:08.137Z,74.18
2017-07-22T21:12:37.170Z,77.05
2017-07-22T21:15:05.519Z,76.25
2017-07-22T21:17:33.881Z,76.10
2017-07-22T21:20:02.541Z,77.37
2017-07-22T21:22:30.909Z,78.98
2017-07-22T21:24:59.217Z,80.96
2017-07-22T21:27:27.565Z,80.32
2017-07-22T21:29:55.904Z,78.18
2017-07-22T21:32:24.527Z,79.97
2017-07-22T21:34:52.866Z,79.19
2017-07-22T21:37:21.199Z,78.21
2017-07-22T21:39:49.569Z,81.48
2017-07-22T21:42:17.902Z,82.29
2017-07-22T21:44:46.509Z,81.79
2017-07-22T21:47:14.851Z,81.38
2017-07-22T21:49:43.195Z,82.29
2017-07-22T21:52:11.542Z,83.05
2017-07-22T21:54:39.872Z,83.78
2017-07-22T21:57:08.465Z,83.83
2017-07-22T21:59:36.816Z,84.48
2017-07-22T22:02:05.159Z,83.49
2017-07-22T22:04:33.518Z,84.17
2017-07-22T22:07:01.840Z,84.72
2017-07-22T22:09:30.179Z,84.46
2017-07-22T22:11:58.497Z,84.41
2017-07-22T22:14:27.117Z,84.90
2017-07-22T22:16:55.454Z,83.83
2017-07-22T22:19:23.795Z,84.28
2017-07-22T22:21:52.141Z,83.94
2017-07-22T22:24:20.494Z,83.39
2017-07-22T22:26:48.835Z,84.16
2017-07-22T22:29:17.230Z,84.36
2017-07-22T22:31:45.568Z,83.82
2017-07-22T22:34:13.901Z,83.57
2017-07-22T22:36:42.498Z,83.59
2017-07-22T22:39:10.837Z,82.75
2017-07-22T22:41:39.177Z,83.37
2017-07-22T22:44:07.528Z,83.52
2017-07-22T22:46:35.859Z,83.67
2017-07-22T22:49:04.194Z,84.58
2017-07-22T22:51:32.546Z,84.49
2017-07-22T22:54:00.905Z,84.68
2017-07-22T22:56:29.305Z,85.70
2017-07-22T22:58:57.647Z,85.11
2017-07-22T23:01:26.018Z,84.54
2017-07-22T23:03:54.382Z,85.18
2017-07-22T23:06:23.506Z,84.84
2017-07-22T23:08:51.884Z,85.59
2017-07-22T23:11:20.224Z,85.14
2017-07-22T23:13:48.577Z,84.73
2017-07-22T23:16:16.926Z,84.47
2017-07-22T23:18:45.269Z,84.46
2017-07-22T23:21:13.867Z,85.53
2017-07-22T23:23:42.209Z,84.58
2017-07-22T23:26:10.531Z,85.58
2017-07-22T23:28:38.873Z,85.58
2017-07-22T23:31:07.206Z,85.62
2017-07-22T23:33:35.585Z,85.97
2017-07-22T23:36:03.970Z,85.29
2017-07-22T23:38:32.309Z,86.30
2017-07-22T23:41:00.661Z,85.67
2017-07-22T23:43:29.035Z,85.64
2017-07-22T23:45:57.368Z,86.73
2017-07-22T23:48:25.999Z,85.70
2017-07-22T23:50:54.328Z,86.28
2017-07-22T23:53:22.660Z,86.04
2017-07-22T23:55:51.004Z,85.20
2017-07-22T23:58:19.340Z,85.82
